Current Conditions
Clear
Conditions



Pressure
1033.92 (hPa) - 30.53 (inHG)
Visibility

10.0 (km) - 6.2 (miles)
   Temperature
8  °C
46°F
5  °C
Dewpoint
82  %
 Humidity
   Wind Speed
19  km/h
10  kts
12  mph
5.4  m/s
   Wind Direction
 310°
North West
   Airport Data
EHLW
Location Leeuwarden Air Base 10 km (6.22 mi)
Metar :EHLW 260955Z AUTO 31010KT 270V340 9999 NCD 08/05 Q1034 BLU NOSIG
Fri 26th February 10:55 am
   Raw Metar Info
Raw METAR is the most common format in the world for the transmission of observational weather data. It is highly standardized through the International Civil Aviation Organization (ICAO), which allows it to be understood throughout most of the world.
   API Info
Data Provided by
https://www.checkwx.com/weather/EHLW
   © Info
CSS/SVG/PHP scripts were developed by weather34.com for use in the weather34 template © 2015-2021

Guide Info provided by Metar-Wikipedia